地図

経路データ

SID SEASON NUMBER BASIN SUBBASIN NAME ISO_TIME NATURE LAT LON WMO_WIND WMO_PRES WMO_AGENCY TRACK_TYPE DIST2LAND LANDFALL IFLAG USA_AGENCY USA_ATCF_ID USA_LAT USA_LON USA_RECORD USA_STATUS USA_WIND USA_PRES USA_SSHS USA_R34_NE USA_R34_SE USA_R34_SW USA_R34_NW USA_R50_NE USA_R50_SE USA_R50_SW USA_R50_NW USA_R64_NE USA_R64_SE USA_R64_SW USA_R64_NW USA_POCI USA_ROCI USA_RMW USA_EYE TOKYO_LAT TOKYO_LON TOKYO_GRADE TOKYO_WIND TOKYO_PRES TOKYO_R50_DIR TOKYO_R50_LONG TOKYO_R50_SHORT TOKYO_R30_DIR TOKYO_R30_LONG TOKYO_R30_SHORT TOKYO_LAND CMA_LAT CMA_LON CMA_CAT CMA_WIND CMA_PRES HKO_LAT HKO_LON HKO_CAT HKO_WIND HKO_PRES NEWDELHI_LAT NEWDELHI_LON NEWDELHI_GRADE NEWDELHI_WIND NEWDELHI_PRES NEWDELHI_CI NEWDELHI_DP NEWDELHI_POCI REUNION_LAT REUNION_LON REUNION_TYPE REUNION_WIND REUNION_PRES REUNION_TNUM REUNION_CI REUNION_RMW REUNION_R34_NE REUNION_R34_SE REUNION_R34_SW REUNION_R34_NW REUNION_R50_NE REUNION_R50_SE REUNION_R50_SW REUNION_R50_NW REUNION_R64_NE REUNION_R64_SE REUNION_R64_SW REUNION_R64_NW BOM_LAT BOM_LON BOM_TYPE BOM_WIND BOM_PRES BOM_TNUM BOM_CI BOM_RMW BOM_R34_NE BOM_R34_SE BOM_R34_SW BOM_R34_NW BOM_R50_NE BOM_R50_SE BOM_R50_SW BOM_R50_NW BOM_R64_NE BOM_R64_SE BOM_R64_SW BOM_R64_NW BOM_ROCI BOM_POCI BOM_EYE BOM_POS_METHOD BOM_PRES_METHOD NADI_LAT NADI_LON NADI_CAT NADI_WIND NADI_PRES WELLINGTON_LAT WELLINGTON_LON WELLINGTON_WIND WELLINGTON_PRES DS824_LAT DS824_LON DS824_STAGE DS824_WIND DS824_PRES TD9636_LAT TD9636_LON TD9636_STAGE TD9636_WIND TD9636_PRES TD9635_LAT TD9635_LON TD9635_WIND TD9635_PRES TD9635_ROCI NEUMANN_LAT NEUMANN_LON NEUMANN_CLASS NEUMANN_WIND NEUMANN_PRES MLC_LAT MLC_LON MLC_CLASS MLC_WIND MLC_PRES USA_GUST BOM_GUST BOM_GUST_PER REUNION_GUST REUNION_GUST_PER USA_SEAHGT USA_SEARAD_NE USA_SEARAD_SE USA_SEARAD_SW USA_SEARAD_NW STORM_SPEED STORM_DIR
2017307N07102 2017 95 WP MM NOT_NAMED 2017-11-03 00:00:00 NR 7.20000 102.400 main 99 78 O_____________ jtwc_wp WP292017 7.20000 102.400 DB 15 1010 -3 1005 120 45 7 284
2017307N07102 2017 95 WP MM NOT_NAMED 2017-11-03 03:00:00 NR 7.28760 102.043 main 71 60 P_____________ WP292017 7.28760 102.043 DB 15 1010 -3 1005 120 45 6 280
2017307N07102 2017 95 WP MM NOT_NAMED 2017-11-03 06:00:00 NR 7.30000 101.800 main 60 46 O_____________ jtwc_wp WP292017 7.30000 101.800 DB 15 1010 -3 1005 120 45 3 252
2017307N07102 2017 95 WP MM NOT_NAMED 2017-11-03 09:00:00 NR 7.18745 101.735 main 46 24 P_____________ WP292017 7.18745 101.735 DB 15 1010 -3 1005 120 45 3 197
2017307N07102 2017 95 WP MM NOT_NAMED 2017-11-03 12:00:00 NR 7.00000 101.700 main 24 0 O_____________ jtwc_wp WP292017 7.00000 101.700 DB 15 1010 -3 1005 120 45 4 207
2017307N07102 2017 95 WP MM NOT_NAMED 2017-11-03 15:00:00 NR 6.79249 101.537 main 0 0 P_____________ WP292017 6.79249 101.537 DB 15 1010 -3 1005 120 45 6 225
2017307N07102 2017 95 WP MM NOT_NAMED 2017-11-03 18:00:00 NR 6.60000 101.300 main 0 0 O_____________ jtwc_wp WP292017 6.60000 101.300 DB 15 1010 -3 1005 120 45 6 242
2017307N07102 2017 95 WP MM NOT_NAMED 2017-11-03 21:00:00 NR 6.50004 100.993 main 0 0 P_____________ WP292017 6.50004 100.993 DB 15 1010 -3 1005 120 45 6 251
2017307N07102 2017 95 WP MM NOT_NAMED 2017-11-04 00:00:00 NR 6.40000 100.700 main 0 0 O_____________ jtwc_wp WP292017 6.40000 100.700 DB 15 1010 -3 1005 120 45 6 239
2017307N07102 2017 95 WP MM NOT_NAMED 2017-11-04 03:00:00 NR 6.21498 100.513 main 0 0 P_____________ WP292017 6.21498 100.513 DB 17 1008 -3 1006 120 45 5 217
2017307N07102 2017 95 WP MM NOT_NAMED 2017-11-04 06:00:00 NR 6.00000 100.400 main 0 0 O_____________ jtwc_wp WP292017 6.00000 100.400 DB 20 1007 -3 1008 120 45 5 205
2017307N07102 2017 95 WP MM NOT_NAMED 2017-11-04 09:00:00 NR 5.79999 100.320 main 11 0 P_____________ WP292017 5.79999 100.320 DB 22 1005 -3 1008 120 45 4 193
2017307N07102 2017 95 WP MM NOT_NAMED 2017-11-04 12:00:00 TS 5.60000 100.300 main 11 11 O_____________ jtwc_wp WP292017 5.60000 100.300 TD 25 1004 -1 1008 120 45 4 0
2017307N07102 2017 95 WP MM NOT_NAMED 2017-11-04 15:00:00 TS 5.37748 100.305 main 11 0 P_____________ WP292017 5.37748 100.305 TD 25 1004 -1 1007 130 45 4 167
2017307N07102 2017 95 WP MM NOT_NAMED 2017-11-04 18:00:00 TS 5.20000 100.400 main 0 0 O_____________ jtwc_wp WP292017 5.20000 100.400 TD 25 1004 -1 1007 140 45 4 132
2017307N07102 2017 95 WP MM NOT_NAMED 2017-11-04 21:00:00 TS 5.11249 100.605 main 0 0 P_____________ WP292017 5.11249 100.605 TD 22 1005 -1 1006 140 45 5 101
2017307N07102 2017 95 WP MM NOT_NAMED 2017-11-05 00:00:00 NR 5.10000 100.900 main 0 0 O_____________ jtwc_wp WP292017 5.10000 100.900 DB 20 1007 -3 1006 140 45 7 91
2017307N07102 2017 95 WP MM NOT_NAMED 2017-11-05 03:00:00 NR 5.09754 101.258 main 0 0 P_____________ WP292017 5.09754 101.258 DB 17 1008 -3 1006 140 45 7 82
2017307N07102 2017 95 WP MM NOT_NAMED 2017-11-05 06:00:00 NR 5.20000 101.600 main 0 0 O_____________ jtwc_wp WP292017 5.20000 101.600 DB 15 1010 -3 1007 140 45 7 57
2017307N07102 2017 95 WP MM NOT_NAMED 2017-11-05 09:00:00 NR 5.45495 101.808 main 0 0 P_____________ WP292017 5.45495 101.808 DB 17 1008 -3 1007 140 45 7 34
2017307N07102 2017 95 WP MM NOT_NAMED 2017-11-05 12:00:00 NR 5.80000 102.000 main 0 0 O_____________ jtwc_wp WP292017 5.80000 102.000 DB 20 1007 -3 1007 140 45 8 38
2017307N07102 2017 95 WP MM NOT_NAMED 2017-11-05 15:00:00 NR 6.12006 102.330 main 0 0 P_____________ WP292017 6.12006 102.330 DB 20 1006 -3 1007 135 57 9 40
2017307N07102 2017 95 WP MM NOT_NAMED 2017-11-05 18:00:00 NR 6.50000 102.600 main 49 49 O_____________ jtwc_wp WP292017 6.50000 102.600 DB 20 1006 -3 1008 130 70 9 20
2017307N07102 2017 95 WP MM NOT_NAMED 2017-11-05 21:00:00 NR 6.99247 102.645 main 103 103 P_____________ WP292017 6.99247 102.645 DB 20 1006 -3 1008 130 65 10 1
2017307N07102 2017 95 WP MM NOT_NAMED 2017-11-06 00:00:00 NR 7.50000 102.600 main 135 135 O_____________ jtwc_wp WP292017 7.50000 102.600 DB 20 1006 -3 1008 130 60 10 357
2017307N07102 2017 95 WP MM NOT_NAMED 2017-11-06 03:00:00 NR 7.93749 102.607 main 165 165 P_____________ WP292017 7.93749 102.607 DB 22 1005 -3 1007 140 57 8 1
2017307N07102 2017 95 WP MM NOT_NAMED 2017-11-06 06:00:00 TS 8.30000 102.600 main 201 201 O_____________ jtwc_wp WP292017 8.30000 102.600 TD 25 1005 -1 1007 150 55 6 358
2017307N07102 2017 95 WP MM NOT_NAMED 2017-11-06 09:00:00 TS 8.57247 102.587 main 229 225 P_____________ WP292017 8.57247 102.587 TD 25 1005 -1 1007 150 55 5 349
2017307N07102 2017 95 WP MM NOT_NAMED 2017-11-06 12:00:00 TS 8.80000 102.500 main 225 213 O_____________ jtwc_wp WP292017 8.80000 102.500 TD 25 1005 -1 1007 150 55 6 328
2017307N07102 2017 95 WP MM NOT_NAMED 2017-11-06 15:00:00 TS 9.04251 102.287 main 220 211 P_____________ WP292017 9.04251 102.287 TD 25 1004 -1 1007 150 55 7 315
2017307N07102 2017 95 WP MM NOT_NAMED 2017-11-06 18:00:00 TS 9.30000 102.000 main 215 211 O_____________ jtwc_wp WP292017 9.30000 102.000 TD 25 1004 -1 1008 150 55 8 314
2017307N07102 2017 95 WP MM NOT_NAMED 2017-11-06 21:00:00 TS 9.59247 101.715 main 211 192 P_____________ WP292017 9.59247 101.715 TD 25 1004 -1 1008 140 52 8 315
2017307N07102 2017 95 WP MM NOT_NAMED 2017-11-07 00:00:00 TS 9.90000 101.400 main 192 172 O_____________ jtwc_wp WP292017 9.90000 101.400 TD 25 1004 -1 1008 130 50 9 312
2017307N07102 2017 95 WP MM NOT_NAMED 2017-11-07 03:00:00 TS 10.2151 101.020 main 172 138 P_____________ WP292017 10.2151 101.020 TD 25 1004 -1 1008 130 50 9 311
2017307N07102 2017 95 WP MM NOT_NAMED 2017-11-07 06:00:00 TS 10.5000 100.700 main 138 122 O_____________ jtwc_wp WP292017 10.5000 100.700 TD 25 1004 -1 1008 130 50 7 320
2017307N07102 2017 95 WP MM NOT_NAMED 2017-11-07 09:00:00 TS 10.7299 100.585 main 122 103 P_____________ WP292017 10.7299 100.585 TD 25 1004 -1 1008 130 50 4 334
2017307N07102 2017 95 WP MM NOT_NAMED 2017-11-07 12:00:00 TS 10.9000 100.500 main 103 79 O_____________ jtwc_wp WP292017 10.9000 100.500 TD 25 1005 -1 1008 130 50 4 312
2017307N07102 2017 95 WP MM NOT_NAMED 2017-11-07 15:00:00 TS 11.0150 100.265 main 79 45 P_____________ WP292017 11.0150 100.265 TD 25 1005 -1 1008 122 50 5 292
2017307N07102 2017 95 WP MM NOT_NAMED 2017-11-07 18:00:00 TS 11.1000 100.000 main 45 21 O_____________ jtwc_wp WP292017 11.1000 100.000 TD 25 1005 -1 1008 115 50 5 291
2017307N07102 2017 95 NI BB NOT_NAMED 2017-11-07 21:00:00 TS 11.1950 99.7825 main 21 0 P_____________ WP292017 11.1950 99.7825 TD 22 1006 -1 1008 115 50 4 297
2017307N07102 2017 95 NI BB NOT_NAMED 2017-11-08 00:00:00 NR 11.3000 99.6000 main 0 O_____________ jtwc_wp WP292017 11.3000 99.6000 DB 20 1007 -3 1009 115 50 4 301

デジタル台風データ・検索

IBTrACS Databaseについて

本データベースは、米国NOAAが公開する1842年以降の世界の熱帯低気圧のベストトラックデータアーカイブInternational Best Track Archive for Climate Stewardship (IBTrACS)を、ウェブで閲覧しやすい形式に変換したものです。

最終更新日:2021-11-26